createdAt,value
2022-08-17T00:02:25.507Z,100370.19
2022-08-17T00:04:55.138Z,100362.31
2022-08-17T00:07:23.412Z,100351.94
2022-08-17T00:09:50.385Z,100367.81
2022-08-17T00:12:41.880Z,100322.38
2022-08-17T00:15:06.042Z,100355.56
2022-08-17T00:17:37.764Z,100354.66
2022-08-17T00:20:05.952Z,100356.59
2022-08-17T00:22:36.374Z,100368.00
2022-08-17T00:25:10.374Z,100334.66
2022-08-17T00:27:37.462Z,100362.00
2022-08-17T00:30:07.699Z,100367.22
2022-08-17T00:33:14.381Z,100362.84
2022-08-17T00:35:30.978Z,100363.78
2022-08-17T00:37:58.043Z,100351.50
2022-08-17T00:40:25.075Z,100361.06
2022-08-17T00:42:53.475Z,100354.91
2022-08-17T00:45:20.766Z,100342.72
2022-08-17T00:47:49.509Z,100351.50
2022-08-17T00:50:19.033Z,100315.84
2022-08-17T00:52:54.931Z,100349.97
2022-08-17T00:55:24.254Z,100327.38
2022-08-17T00:57:56.724Z,100343.88
2022-08-17T01:00:32.608Z,100338.56
2022-08-17T01:03:06.446Z,100343.13
2022-08-17T01:05:38.454Z,100290.72
2022-08-17T01:08:13.399Z,100334.47
2022-08-17T01:10:59.417Z,100311.72
2022-08-17T01:13:41.863Z,100347.69
2022-08-17T01:16:29.954Z,100337.31
2022-08-17T01:19:05.366Z,100334.59
2022-08-17T01:21:47.769Z,100339.06
2022-08-17T01:24:15.706Z,100337.47
2022-08-17T01:26:44.266Z,100341.75
2022-08-17T01:29:12.711Z,100355.00
2022-08-17T01:31:45.635Z,100342.69
2022-08-17T01:34:15.991Z,100328.63
2022-08-17T01:36:46.019Z,100331.25
2022-08-17T01:39:23.449Z,100337.25
2022-08-17T01:41:54.022Z,100325.06
2022-08-17T01:44:23.539Z,100340.88
2022-08-17T01:46:50.704Z,100354.16
2022-08-17T01:49:19.752Z,100295.63
2022-08-17T01:51:46.808Z,100330.59
2022-08-17T01:54:16.254Z,100350.91
2022-08-17T01:56:47.829Z,100294.19
2022-08-17T01:59:16.548Z,100334.31
2022-08-17T02:01:44.219Z,100339.63
2022-08-17T02:04:12.332Z,100338.16
2022-08-17T02:06:45.199Z,100345.19
2022-08-17T02:09:25.686Z,100344.50
2022-08-17T02:11:56.304Z,100327.13
2022-08-17T02:14:25.328Z,100344.72
2022-08-17T02:16:52.586Z,100326.44
2022-08-17T02:19:20.110Z,100352.63
2022-08-17T02:21:49.856Z,100361.41
2022-08-17T02:24:58.778Z,100334.16
2022-08-17T02:27:12.955Z,100351.66
2022-08-17T02:29:40.229Z,100348.22
2022-08-17T02:32:15.367Z,100305.63
2022-08-17T02:34:52.826Z,100343.25
2022-08-17T02:37:19.736Z,100354.56
2022-08-17T02:39:46.822Z,100335.34
2022-08-17T02:42:15.176Z,100349.34
2022-08-17T02:44:42.373Z,100361.84
2022-08-17T02:47:10.543Z,100317.13
2022-08-17T02:49:38.151Z,100347.59
2022-08-17T02:52:07.352Z,100350.91
2022-08-17T02:54:39.842Z,100330.72
2022-08-17T02:57:08.320Z,100346.28
2022-08-17T02:59:35.425Z,100342.66
2022-08-17T03:02:11.317Z,100332.63
2022-08-17T03:04:38.954Z,100337.56
2022-08-17T03:07:06.721Z,100331.41
2022-08-17T03:09:34.074Z,100309.41
2022-08-17T03:12:09.168Z,100341.34
2022-08-17T03:14:43.572Z,100333.78
2022-08-17T03:17:15.899Z,100340.03
2022-08-17T03:19:45.038Z,100337.47
2022-08-17T03:22:35.864Z,100299.44
2022-08-17T03:24:59.789Z,100328.47
2022-08-17T03:27:26.762Z,100327.38
2022-08-17T03:29:53.710Z,100315.22
2022-08-17T03:32:21.372Z,100300.94
2022-08-17T03:34:48.578Z,100332.06
2022-08-17T03:37:15.605Z,100294.25
2022-08-17T03:39:43.149Z,100307.56
2022-08-17T03:42:31.963Z,100332.41
2022-08-17T03:45:01.752Z,100317.28
2022-08-17T03:47:49.137Z,100290.94
2022-08-17T03:50:35.627Z,100308.84
2022-08-17T03:53:33.246Z,100298.06
2022-08-17T03:56:23.255Z,100313.53
2022-08-17T03:58:50.583Z,100336.34
2022-08-17T04:01:18.075Z,100334.50
2022-08-17T04:03:45.205Z,100322.09
2022-08-17T04:06:12.099Z,100334.56
2022-08-17T04:08:39.216Z,100327.97
2022-08-17T04:11:06.264Z,100334.81
2022-08-17T04:13:33.222Z,100309.84
2022-08-17T04:16:00.221Z,100317.69
2022-08-17T04:18:27.229Z,100281.72
2022-08-17T04:20:54.264Z,100306.06
2022-08-17T04:23:21.472Z,100330.28
2022-08-17T04:25:50.604Z,100326.72
2022-08-17T04:28:18.896Z,100327.13
2022-08-17T04:30:47.659Z,100320.06
2022-08-17T04:33:16.970Z,100322.09
2022-08-17T04:35:47.350Z,100322.91
2022-08-17T04:38:18.311Z,100317.75
2022-08-17T04:41:03.657Z,100322.56
2022-08-17T04:43:33.467Z,100325.38
2022-08-17T04:46:03.438Z,100290.56
2022-08-17T04:48:42.910Z,100308.31
2022-08-17T04:51:17.673Z,100299.44
2022-08-17T04:53:54.062Z,100316.63
2022-08-17T04:56:25.287Z,100317.91
2022-08-17T04:58:55.863Z,100287.47
2022-08-17T05:01:24.862Z,100293.28
2022-08-17T05:03:53.693Z,100307.94
2022-08-17T05:06:21.187Z,100295.13
2022-08-17T05:08:48.269Z,100295.22
2022-08-17T05:11:15.813Z,100301.19
2022-08-17T05:13:42.754Z,100295.06
2022-08-17T05:16:11.027Z,100291.66
2022-08-17T05:18:38.953Z,100298.19
2022-08-17T05:21:07.065Z,100295.84
2022-08-17T05:23:42.459Z,100298.34
2022-08-17T05:26:26.977Z,100285.22
2022-08-17T05:28:57.148Z,100268.06
2022-08-17T05:31:28.001Z,100281.25
2022-08-17T05:33:55.081Z,100292.09
2022-08-17T05:36:43.247Z,100282.59
2022-08-17T05:39:09.454Z,100280.78
2022-08-17T05:41:43.009Z,100287.97
2022-08-17T05:44:10.158Z,100282.59
2022-08-17T05:46:41.478Z,100272.75
2022-08-17T05:49:08.894Z,100270.94
2022-08-17T05:52:10.158Z,100282.69
2022-08-17T05:55:09.305Z,100287.47
2022-08-17T05:57:53.478Z,100278.19
2022-08-17T06:00:42.097Z,100287.66
2022-08-17T06:03:33.228Z,100244.28
2022-08-17T06:06:17.365Z,100275.53
2022-08-17T06:08:53.598Z,100281.13
2022-08-17T06:11:39.070Z,100279.38
2022-08-17T06:14:25.742Z,100277.41
2022-08-17T06:17:01.182Z,100267.38
2022-08-17T06:19:34.144Z,100271.78
2022-08-17T06:22:02.950Z,100271.84
2022-08-17T06:24:51.709Z,100271.97
2022-08-17T06:27:37.738Z,100282.25
2022-08-17T06:30:21.605Z,100284.97
2022-08-17T06:32:51.030Z,100294.75
2022-08-17T06:35:31.840Z,100286.09
2022-08-17T06:38:38.531Z,100290.72
2022-08-17T06:41:37.565Z,100284.41
2022-08-17T06:44:43.186Z,100286.72
2022-08-17T06:47:35.456Z,100272.63
2022-08-17T06:50:08.547Z,100276.16
2022-08-17T06:52:59.508Z,100270.34
2022-08-17T06:55:38.124Z,100263.66
2022-08-17T06:58:15.968Z,100249.13
2022-08-17T07:00:47.422Z,100263.38
2022-08-17T07:03:38.155Z,100238.72
2022-08-17T07:06:17.446Z,100214.19
2022-08-17T07:08:56.195Z,100220.22
2022-08-17T07:11:34.057Z,100217.78
2022-08-17T07:14:19.782Z,100251.69
2022-08-17T07:16:51.784Z,100220.63
2022-08-17T07:19:25.418Z,100249.91
2022-08-17T07:22:10.987Z,100251.81
2022-08-17T07:24:53.144Z,100245.97
2022-08-17T07:27:22.905Z,100232.16
2022-08-17T07:30:03.755Z,100200.06
2022-08-17T07:32:48.431Z,100244.47
2022-08-17T07:35:21.189Z,100240.81
2022-08-17T07:37:55.789Z,100239.88
2022-08-17T07:40:49.161Z,100230.94
2022-08-17T07:43:22.230Z,100229.00
2022-08-17T07:46:20.487Z,100243.75
2022-08-17T07:48:52.559Z,100233.00
2022-08-17T07:51:27.839Z,100238.28
2022-08-17T07:54:13.463Z,100203.06
2022-08-17T07:56:56.504Z,100218.63
2022-08-17T07:59:35.709Z,100232.66
2022-08-17T08:02:05.399Z,100227.00
2022-08-17T08:05:01.863Z,100231.59
2022-08-17T08:07:58.154Z,100227.00
2022-08-17T08:10:35.599Z,100222.78
2022-08-17T08:13:14.274Z,100212.34
2022-08-17T08:15:53.850Z,100229.00
2022-08-17T08:18:55.065Z,100215.28
2022-08-17T08:21:24.810Z,100215.13
2022-08-17T08:23:54.824Z,100215.94
2022-08-17T08:26:51.244Z,100217.63
2022-08-17T08:29:28.446Z,100209.91
2022-08-17T08:32:22.163Z,100219.03
2022-08-17T08:35:02.920Z,100221.88
2022-08-17T08:37:43.690Z,100202.44
2022-08-17T08:40:11.519Z,100187.94
2022-08-17T08:43:14.029Z,100208.06
2022-08-17T08:45:56.723Z,100215.34
2022-08-17T08:48:53.214Z,100228.38
2022-08-17T08:51:35.949Z,100202.50
2022-08-17T08:54:28.623Z,100201.09
2022-08-17T08:57:30.872Z,100202.75
2022-08-17T09:00:20.243Z,100204.41
2022-08-17T09:02:56.553Z,100196.78
2022-08-17T09:05:32.437Z,100188.28
2022-08-17T09:08:18.012Z,100206.00
2022-08-17T09:10:44.983Z,100188.47
2022-08-17T09:13:31.558Z,100200.09
2022-08-17T09:16:11.578Z,100189.00
2022-08-17T09:19:00.247Z,100191.59
2022-08-17T09:21:54.985Z,100182.72
2022-08-17T09:25:03.341Z,100182.97
2022-08-17T09:27:48.118Z,100185.78
2022-08-17T09:30:15.579Z,100195.25
2022-08-17T09:32:47.075Z,100196.88
2022-08-17T09:35:37.040Z,100199.56
2022-08-17T09:38:40.562Z,100187.94
2022-08-17T09:41:20.512Z,100206.19
2022-08-17T09:44:23.692Z,100181.78
2022-08-17T09:46:56.062Z,100199.75
2022-08-17T09:49:35.008Z,100203.00
2022-08-17T09:52:17.866Z,100193.84
2022-08-17T09:54:46.113Z,100189.00
2022-08-17T09:57:32.571Z,100181.03
2022-08-17T10:00:12.864Z,100196.31
2022-08-17T10:02:54.754Z,100193.31
2022-08-17T10:05:46.251Z,100180.50
2022-08-17T10:08:15.939Z,100189.13
2022-08-17T10:11:08.082Z,100183.50
2022-08-17T10:13:47.183Z,100182.50
2022-08-17T10:16:26.337Z,100168.09
2022-08-17T10:19:24.280Z,100172.00
2022-08-17T10:22:32.352Z,100170.50
2022-08-17T10:25:24.207Z,100160.38
2022-08-17T10:27:59.811Z,100169.81
2022-08-17T10:30:31.805Z,100162.84
2022-08-17T10:33:21.567Z,100156.84
2022-08-17T10:36:32.170Z,100162.06
2022-08-17T10:39:11.450Z,100165.72
2022-08-17T10:41:44.072Z,100165.09
2022-08-17T10:44:40.272Z,100165.00
2022-08-17T10:47:17.301Z,100159.28
2022-08-17T10:49:56.095Z,100128.38
2022-08-17T10:52:25.007Z,100160.47
2022-08-17T10:54:58.523Z,100156.91
2022-08-17T10:57:41.997Z,100173.91
2022-08-17T11:00:35.272Z,100173.59
2022-08-17T11:03:07.912Z,100135.50
2022-08-17T11:05:54.144Z,100157.78
2022-08-17T11:08:33.295Z,100158.28
2022-08-17T11:11:19.793Z,100165.88
2022-08-17T11:13:49.579Z,100165.84
2022-08-17T11:16:48.123Z,100158.78
2022-08-17T11:19:41.731Z,100161.78
2022-08-17T11:22:33.405Z,100157.59
2022-08-17T11:25:31.354Z,100151.09
2022-08-17T11:28:09.471Z,100132.06
2022-08-17T11:30:51.673Z,100130.00
2022-08-17T11:33:38.098Z,100130.03
2022-08-17T11:36:38.921Z,100138.94
2022-08-17T11:39:05.763Z,100147.25
2022-08-17T11:41:35.586Z,100144.41
2022-08-17T11:44:29.151Z,100136.06
2022-08-17T11:48:23.833Z,100141.88
2022-08-17T11:51:47.269Z,100143.06
2022-08-17T11:54:34.781Z,100123.38
2022-08-17T11:57:29.383Z,100122.59
2022-08-17T12:00:29.084Z,100124.94
2022-08-17T12:03:24.916Z,100110.44
2022-08-17T12:06:07.112Z,100097.81
2022-08-17T12:08:43.478Z,100108.91
2022-08-17T12:11:55.488Z,100118.41
2022-08-17T12:14:21.267Z,100095.78
2022-08-17T12:17:05.718Z,100099.03
2022-08-17T12:19:34.535Z,100102.59
2022-08-17T12:22:23.610Z,100092.28
2022-08-17T12:24:58.074Z,100091.84
2022-08-17T12:27:53.137Z,100098.50
2022-08-17T12:30:22.190Z,100112.59
2022-08-17T12:32:50.126Z,100102.00
2022-08-17T12:35:34.706Z,100104.47
2022-08-17T12:38:04.513Z,100095.03
2022-08-17T12:40:33.066Z,100085.97
2022-08-17T12:43:18.034Z,100082.19
2022-08-17T12:45:53.751Z,100091.75
2022-08-17T12:48:28.706Z,100091.34
2022-08-17T12:51:01.958Z,100073.78
2022-08-17T12:53:31.999Z,100077.81
2022-08-17T12:56:01.327Z,100080.50
2022-08-17T12:58:35.174Z,100068.69
2022-08-17T13:01:08.884Z,100074.81
2022-08-17T13:03:40.828Z,100083.03
2022-08-17T13:06:12.214Z,100068.91
2022-08-17T13:08:50.283Z,100070.16
2022-08-17T13:11:21.179Z,100061.13
2022-08-17T13:13:55.119Z,100075.00
2022-08-17T13:16:28.151Z,100067.09
2022-08-17T13:18:55.387Z,100080.53
2022-08-17T13:21:30.635Z,100071.41
2022-08-17T13:24:05.988Z,100076.78
2022-08-17T13:27:08.227Z,100065.53
2022-08-17T13:29:45.011Z,100037.69
2022-08-17T13:32:36.267Z,100065.41
2022-08-17T13:35:32.826Z,100064.88
2022-08-17T13:38:11.851Z,100061.63
2022-08-17T13:40:45.870Z,100069.47
2022-08-17T13:43:40.810Z,100053.06
2022-08-17T13:46:32.563Z,100063.38
2022-08-17T13:49:06.919Z,100020.75
2022-08-17T13:51:41.781Z,100042.56
2022-08-17T13:54:23.494Z,100064.03
2022-08-17T13:57:00.245Z,100064.03
2022-08-17T13:59:54.655Z,100056.31
2022-08-17T14:02:28.347Z,100028.47
2022-08-17T14:05:02.052Z,100055.91
2022-08-17T14:07:37.410Z,100058.69
2022-08-17T14:10:10.601Z,100057.66
2022-08-17T14:12:40.594Z,100044.00
2022-08-17T14:15:10.252Z,100054.81
2022-08-17T14:17:39.125Z,100045.84
2022-08-17T14:20:09.802Z,100057.69
2022-08-17T14:22:44.591Z,100058.09
2022-08-17T14:25:14.132Z,100065.41
2022-08-17T14:27:53.185Z,100055.78
2022-08-17T14:30:29.703Z,100024.69
2022-08-17T14:37:25.321Z,100013.50
2022-08-17T14:40:01.402Z,100025.97
2022-08-17T14:42:33.313Z,100057.09
2022-08-17T14:45:06.095Z,100018.78
2022-08-17T14:47:34.259Z,100057.41
2022-08-17T14:50:02.260Z,100058.16
2022-08-17T14:52:31.372Z,100057.94
2022-08-17T14:58:07.030Z,100024.59
2022-08-17T15:00:33.972Z,100070.13
2022-08-17T15:03:02.309Z,100040.59
2022-08-17T15:05:35.504Z,100039.66
2022-08-17T15:08:04.742Z,100067.00
2022-08-17T15:10:57.506Z,100047.81
2022-08-17T15:13:26.479Z,100038.47
2022-08-17T15:15:54.760Z,100051.81
2022-08-17T15:18:22.515Z,100046.31
2022-08-17T15:20:50.152Z,100020.84
2022-08-17T15:23:20.112Z,100013.84
2022-08-17T15:25:48.788Z,100046.97
2022-08-17T15:28:16.919Z,100045.38
2022-08-17T15:30:45.056Z,100046.53
2022-08-17T15:33:29.584Z,100021.69
2022-08-17T15:35:59.348Z,100024.78
2022-08-17T15:38:28.112Z,100044.16
2022-08-17T15:40:56.811Z,100062.22
2022-08-17T15:43:28.362Z,100055.34
2022-08-17T15:46:03.634Z,100046.41
2022-08-17T15:48:42.173Z,100021.63
2022-08-17T15:51:13.780Z,100017.00
2022-08-17T15:53:43.121Z,100053.00
2022-08-17T15:56:11.260Z,100024.91
2022-08-17T15:58:38.638Z,100048.13
2022-08-17T16:01:16.617Z,100053.63
2022-08-17T16:04:04.069Z,100043.31
2022-08-17T16:06:34.562Z,100018.84
2022-08-17T16:09:02.030Z,100063.50
2022-08-17T16:11:28.957Z,100053.25
2022-08-17T16:13:56.159Z,100018.06
2022-08-17T16:16:24.334Z,100060.09
2022-08-17T16:18:54.517Z,100044.59
2022-08-17T16:21:27.204Z,100045.75
2022-08-17T16:23:58.309Z,100045.59
2022-08-17T16:26:26.686Z,100054.88
2022-08-17T16:28:54.828Z,100061.19
2022-08-17T16:31:22.661Z,100059.88
2022-08-17T16:34:15.788Z,100031.44
2022-08-17T16:36:38.765Z,100043.34
2022-08-17T16:39:05.766Z,100059.81
2022-08-17T16:41:48.866Z,100070.91
2022-08-17T16:44:18.880Z,100021.97
2022-08-17T16:46:50.379Z,100068.34
2022-08-17T16:49:35.795Z,100036.72
2022-08-17T16:52:11.987Z,100059.78
2022-08-17T16:54:43.933Z,100075.03
2022-08-17T16:57:12.400Z,100045.59
2022-08-17T16:59:42.411Z,100047.72
2022-08-17T17:02:14.512Z,100060.19
2022-08-17T17:05:00.182Z,100054.78
2022-08-17T17:07:45.490Z,100060.50
2022-08-17T17:10:20.034Z,100070.75
2022-08-17T17:13:01.414Z,100033.91
2022-08-17T17:15:43.108Z,100040.56
2022-08-17T17:18:12.841Z,100073.81
2022-08-17T17:20:51.159Z,100074.16
2022-08-17T17:23:47.668Z,100084.44
2022-08-17T17:26:48.478Z,100075.22
2022-08-17T17:29:47.354Z,100077.59
2022-08-17T17:32:28.526Z,100078.97
2022-08-17T17:35:09.728Z,100076.09
2022-08-17T17:37:40.197Z,100066.44
2022-08-17T17:40:15.440Z,100073.69
2022-08-17T17:42:44.200Z,100076.69
2022-08-17T17:45:23.983Z,100049.06
2022-08-17T17:47:51.440Z,100071.06
2022-08-17T17:50:21.490Z,100027.06
2022-08-17T17:53:02.251Z,100079.69
2022-08-17T17:55:38.489Z,100066.69
2022-08-17T17:58:33.305Z,100067.09
2022-08-17T18:01:25.154Z,100065.59
2022-08-17T18:03:59.224Z,100067.66
2022-08-17T18:06:50.517Z,100072.69
2022-08-17T18:09:50.982Z,100066.81
2022-08-17T18:12:37.671Z,100059.22
2022-08-17T18:15:23.883Z,100061.09
2022-08-17T18:18:09.768Z,100061.53
2022-08-17T18:20:53.258Z,100048.25
2022-08-17T18:23:27.711Z,100066.22
2022-08-17T18:25:56.819Z,100063.78
2022-08-17T18:28:35.733Z,100046.69
2022-08-17T18:31:16.352Z,100059.00
2022-08-17T18:33:47.082Z,100040.25
2022-08-17T18:36:29.007Z,100056.66
2022-08-17T18:39:16.321Z,100060.44
2022-08-17T18:41:47.168Z,100042.44
2022-08-17T18:44:38.116Z,100055.56
2022-08-17T18:47:15.854Z,100067.03
2022-08-17T18:49:58.726Z,100039.88
2022-08-17T18:52:33.861Z,100066.84
2022-08-17T18:55:14.371Z,100062.56
2022-08-17T18:57:59.410Z,100074.53
2022-08-17T19:00:32.279Z,100066.44
2022-08-17T19:03:04.746Z,100063.00
2022-08-17T19:05:42.242Z,100035.19
2022-08-17T19:08:29.337Z,100050.66
2022-08-17T19:11:09.867Z,100061.41
2022-08-17T19:13:45.707Z,100019.78
2022-08-17T19:16:41.521Z,100058.81
2022-08-17T19:19:15.837Z,100072.09
2022-08-17T19:21:50.705Z,100068.56
2022-08-17T19:24:26.505Z,100070.56
2022-08-17T19:27:11.396Z,100063.88
2022-08-17T19:30:01.648Z,100075.50
2022-08-17T19:32:34.449Z,100069.84
2022-08-17T19:35:03.135Z,100077.69
2022-08-17T19:38:04.862Z,100082.53
2022-08-17T19:40:54.384Z,100075.91
2022-08-17T19:43:51.387Z,100078.66
2022-08-17T19:46:37.373Z,100070.97
2022-08-17T19:49:16.072Z,100084.31
2022-08-17T19:51:55.778Z,100082.66
2022-08-17T19:54:35.164Z,100076.69
2022-08-17T19:57:07.811Z,100078.69
2022-08-17T20:00:09.901Z,100055.91
2022-08-17T20:02:37.202Z,100080.06
2022-08-17T20:05:37.282Z,100080.22
2022-08-17T20:08:24.547Z,100087.41
2022-08-17T20:10:57.460Z,100072.81
2022-08-17T20:13:35.809Z,100088.69
2022-08-17T20:16:04.163Z,100097.44
2022-08-17T20:18:38.298Z,100050.34
2022-08-17T20:21:20.003Z,100091.41
2022-08-17T20:24:02.051Z,100098.91
2022-08-17T20:26:55.500Z,100094.56
2022-08-17T20:30:00.505Z,100089.63
2022-08-17T20:32:52.366Z,100094.94
2022-08-17T20:35:32.877Z,100105.66
2022-08-17T20:38:11.045Z,100104.91
2022-08-17T20:41:04.031Z,100086.00
2022-08-17T20:43:35.634Z,100096.66
2022-08-17T20:46:14.511Z,100101.25
2022-08-17T20:48:46.214Z,100093.56
2022-08-17T20:51:40.341Z,100098.09
2022-08-17T20:54:27.478Z,100104.69
2022-08-17T20:56:57.388Z,100109.97
2022-08-17T20:59:25.485Z,100102.81
2022-08-17T21:02:17.664Z,100114.63
2022-08-17T21:04:54.396Z,100114.03
2022-08-17T21:07:30.334Z,100120.41
2022-08-17T21:10:17.028Z,100121.47
2022-08-17T21:12:48.633Z,100110.25
2022-08-17T21:15:28.562Z,100113.78
2022-08-17T21:18:07.126Z,100113.06
2022-08-17T21:20:57.828Z,100118.56
2022-08-17T21:23:43.514Z,100101.38
2022-08-17T21:26:50.403Z,100113.75
2022-08-17T21:29:33.805Z,100083.59
2022-08-17T21:32:02.084Z,100117.34
2022-08-17T21:34:29.301Z,100113.03
2022-08-17T21:37:18.689Z,100123.09
2022-08-17T21:40:29.148Z,100125.34
2022-08-17T21:43:04.916Z,100121.88
2022-08-17T21:45:36.314Z,100129.00
2022-08-17T21:48:12.752Z,100127.28
2022-08-17T21:50:43.012Z,100092.56
2022-08-17T21:53:18.079Z,100091.78
2022-08-17T21:55:50.352Z,100125.19
2022-08-17T21:58:48.312Z,100120.22
2022-08-17T22:01:22.040Z,100126.53
2022-08-17T22:04:03.924Z,100125.88
2022-08-17T22:06:41.403Z,100116.38
2022-08-17T22:09:29.863Z,100127.22
2022-08-17T22:12:10.986Z,100127.31
2022-08-17T22:14:53.394Z,100130.00
2022-08-17T22:17:36.625Z,100102.34
2022-08-17T22:20:14.752Z,100108.34
2022-08-17T22:23:20.213Z,100125.09
2022-08-17T22:26:05.964Z,100110.56
2022-08-17T22:28:45.755Z,100130.66
2022-08-17T22:31:20.054Z,100125.69
2022-08-17T22:33:59.589Z,100124.69
2022-08-17T22:36:37.379Z,100128.34
2022-08-17T22:39:04.188Z,100133.66
2022-08-17T22:42:00.996Z,100132.06
2022-08-17T22:44:35.708Z,100126.19
2022-08-17T22:47:11.607Z,100140.97
2022-08-17T22:49:53.209Z,100128.75
2022-08-17T22:53:00.455Z,100139.16
2022-08-17T22:55:49.859Z,100151.81
2022-08-17T22:58:38.524Z,100150.19
2022-08-17T23:01:23.840Z,100141.53
2022-08-17T23:04:32.314Z,100133.63
2022-08-17T23:06:59.656Z,100151.19
2022-08-17T23:09:26.684Z,100136.03
2022-08-17T23:11:58.625Z,100146.63
2022-08-17T23:14:32.895Z,100141.41
2022-08-17T23:17:02.065Z,100140.06
2022-08-17T23:19:31.757Z,100106.16
2022-08-17T23:22:02.018Z,100143.50
2022-08-17T23:24:35.666Z,100138.75
2022-08-17T23:27:03.563Z,100156.28
2022-08-17T23:29:30.544Z,100151.91
2022-08-17T23:31:59.984Z,100148.44
2022-08-17T23:34:28.715Z,100160.03
2022-08-17T23:36:56.264Z,100154.75
2022-08-17T23:39:27.755Z,100160.94
2022-08-17T23:41:59.077Z,100168.06
2022-08-17T23:44:28.462Z,100156.59
2022-08-17T23:46:55.427Z,100142.88
2022-08-17T23:49:23.496Z,100175.19
2022-08-17T23:51:53.717Z,100169.91
2022-08-17T23:54:33.728Z,100171.69
2022-08-17T23:57:02.469Z,100171.69
2022-08-17T23:59:29.317Z,100173.66
